Vaughn, New Mexico
Current Conditions -  °F | °C
As of 9:53 AM on Sunday 23 Nov 2014 (Local Time) from KCQC Reporting Station
Broken Clouds Broken Clouds  
Wind Chill: 25°   Ceiling: 6500
Heat Index: 38°   Visibility: 10mi
Dew Point: 21°   Wind: 33mph
Humidity: 51%   Direction: 300°WNW
Pressure: 29.79"   Gusts: 44mph
Location:  34.6°N, 105.21°W
Report Text: KCQC 231653Z AUTO 30029G38KT 10SM BKN065 03/M06 A2979 RMK AO2 PK WND 30038/1652 SLP057 T00331061
Loading
Personal Weather Stations






























Interactive Weather Map New forecast layout! Learn more

10-Day Weather Forecast

Advertisements
Track Severe Weather on mobile